Stephenville, Texas
Current Conditions -  °F | °C
As of 9:15 PM on Tuesday 21 Oct 2014 (Local Time) from KSEP Reporting Station
Clear Clear  
Wind Chill: 19°   Ceiling: Unl
Heat Index: 19°   Visibility: 10mi
Dew Point: 10°   Wind: 6mph
Humidity: 54%   Direction: 120°ESE
Pressure: 30.09"   Gusts: NA
Location:  32.22°N, 98.2°W
Report Text: KSEP 220215Z AUTO 12005KT 10SM CLR 19/10 A3009 RMK AO2 T01920097
Loading
Personal Weather Stations






























Interactive Weather Map New forecast layout! Learn more

10-Day Weather Forecast

Advertisements
Track Severe Weather on mobile